Bookmark and Share
Track history (hours):
 

Autumn

Last reported at 2014-Apr-19 23:31 UTC. Time now 2014-Apr-20 19:06 UTC.
Position N 53°31' W 003°16'.

Length 129 m; draft 6 m.

Type: Tanker. MMSI: 538003323.

NotesDate/timePositionNaut miles runAvg speedWind from/ knotsBaromVisibWave heightAir tempDewpointWater temp
2014-Apr-19 23:31N 53°31' W 003°16'5 2.4
2014-Apr-19 21:33N 53°29' W 003°22'0 0.0
2014-Apr-19 20:33N 53°29' W 003°22'0 0.0
2014-Apr-19 19:27N 53°29' W 003°22'0 0.0
2014-Apr-19 18:30N 53°29' W 003°22'0 0.0
2014-Apr-19 17:33N 53°29' W 003°22'4 4.0
2014-Apr-19 16:33N 53°30' W 003°29'1312.4
2014-Apr-19 15:33N 53°31' W 003°50'4112.2
2014-Apr-19 12:10N 53°16' W 004°54'13715.3
2014-Apr-19 03:10N 51°03' W 005°53'914.2
2014-Apr-19 02:34N 50°55' W 005°53'1414.0
2014-Apr-19 01:33N 50°41' W 005°53'1413.6
2014-Apr-19 00:33N 50°27' W 005°53'68 2.1
2014-Apr-17 15:32N 50°22' W 004°07'0 0.0
2014-Apr-17 14:32N 50°22' W 004°07'0 0.0
2014-Apr-17 13:31N 50°22' W 004°07'0 0.0
2014-Apr-17 12:32N 50°22' W 004°07'0 0.0
2014-Apr-17 11:31N 50°22' W 004°07'0 0.0
2014-Apr-17 10:31N 50°22' W 004°07'0 0.0
2014-Apr-17 09:31N 50°22' W 004°07'0 0.0
2014-Apr-17 08:32N 50°22' W 004°07'0 0.0
2014-Apr-17 07:31N 50°22' W 004°07'0 0.0
2014-Apr-17 06:31N 50°22' W 004°07'0 0.5
2014-Apr-17 05:33N 50°22' W 004°08'3 2.9
2014-Apr-17 04:32N 50°19' W 004°09'0 0.0
2014-Apr-17 03:32N 50°19' W 004°09'0 0.0
2014-Apr-17 02:32N 50°19' W 004°09'0 0.1
2014-Apr-17 01:32N 50°19' W 004°09'0 0.0
2014-Apr-17 00:32N 50°19' W 004°09'0 0.0
2014-Apr-16 23:26N 50°19' W 004°09'0 0.0
2014-Apr-16 22:32N 50°19' W 004°09'0 0.0
2014-Apr-16 21:23N 50°19' W 004°09'0 0.0
2014-Apr-16 20:32N 50°19' W 004°09'0 0.0
2014-Apr-16 19:32N 50°19' W 004°09'0 0.0
2014-Apr-16 18:32N 50°19' W 004°09'0 0.0
2014-Apr-16 17:32N 50°19' W 004°09'0 0.0
2014-Apr-16 16:32N 50°19' W 004°09'3 2.8
2014-Apr-16 15:33N 50°17' W 004°07'5813.7
2014-Apr-16 11:20N 50°15' W 002°37'1112.7
2014-Apr-16 10:30N 50°17' W 002°21'1111.3
2014-Apr-16 09:33N 50°18' W 002°04'1010.2
2014-Apr-16 08:33N 50°20' W 001°49'1010.1
2014-Apr-16 07:33N 50°22' W 001°33'1110.8
2014-Apr-16 06:33N 50°24' W 001°16'1312.5
2014-Apr-16 05:33N 50°26' W 000°57'1515.0
2014-Apr-16 04:32N 50°28' W 000°33'2115.3
2014-Apr-16 03:10N 50°32' W 000°01'915.2
2014-Apr-16 02:33N 50°34' E 000°13'1514.8
2014-Apr-16 01:33N 50°38' E 000°36'1313.4
2014-Apr-16 00:33N 50°46' E 000°53'1712.3
2014-Apr-15 23:11N 50°57' E 001°13'812.6
2014-Apr-15 22:34N 51°02' E 001°23'1414.4
2014-Apr-15 21:33N 51°12' E 001°40'1615.8
2014-Apr-15 20:33N 51°25' E 001°54'1616.0
2014-Apr-15 19:33N 51°37' E 002°11'5513.4
2014-Apr-15 15:27N 52°18' E 003°10'1111.8
2014-Apr-15 14:33N 52°25' E 003°24'12 6.0
2014-Apr-15 12:34N 52°30' E 003°41'1212.4
2014-Apr-15 11:34N 52°31' E 004°02'1312.7
2014-Apr-15 10:34N 52°30' E 004°22'9 8.8
2014-Apr-15 09:34N 52°28' E 004°37'2 2.0
2014-Apr-15 08:34N 52°28' E 004°40'5 4.7
2014-Apr-15 07:33N 52°25' E 004°46'0 0.0
2014-Apr-15 06:33N 52°25' E 004°46'0 0.0
2014-Apr-15 05:33N 52°25' E 004°46'0 0.0
2014-Apr-15 03:33N 52°25' E 004°46'0 0.0
2014-Apr-15 01:33N 52°25' E 004°46'0 0.0
2014-Apr-15 00:33N 52°25' E 004°46'0 0.0
2014-Apr-14 23:33N 52°25' E 004°46'0 0.0
2014-Apr-14 22:33N 52°25' E 004°46'0 0.0
2014-Apr-14 21:33N 52°25' E 004°46'0 0.0
2014-Apr-14 20:33N 52°25' E 004°46'0 0.0
2014-Apr-14 19:33N 52°25' E 004°46'0 0.0
2014-Apr-14 18:30N 52°25' E 004°46'0 0.0
2014-Apr-14 17:33N 52°25' E 004°46'0 0.0
2014-Apr-14 16:33N 52°25' E 004°46'0 0.0
2014-Apr-14 15:33N 52°25' E 004°46'0 0.0
2014-Apr-14 14:33N 52°25' E 004°46'0 0.0
2014-Apr-14 13:33N 52°25' E 004°46'0 0.0
2014-Apr-14 11:33N 52°25' E 004°46'0 0.0
2014-Apr-14 10:33N 52°25' E 004°46'0 0.0
2014-Apr-14 09:33N 52°25' E 004°46'0 0.0
2014-Apr-14 08:33N 52°25' E 004°46'0 0.0
2014-Apr-14 07:33N 52°25' E 004°46'0 0.0
2014-Apr-14 06:33N 52°25' E 004°46'0 0.0
2014-Apr-14 05:33N 52°25' E 004°46'0 0.0
2014-Apr-13 22:33N 52°25' E 004°46'0 0.0
2014-Apr-13 21:33N 52°25' E 004°46'0 0.0
2014-Apr-13 20:33N 52°25' E 004°46'0 0.0
2014-Apr-13 19:33N 52°25' E 004°46'0 0.0
2014-Apr-13 18:33N 52°25' E 004°46'0 0.0
2014-Apr-13 17:33N 52°25' E 004°46'0 0.0
2014-Apr-13 16:33N 52°25' E 004°46'0 0.0
2014-Apr-13 15:33N 52°25' E 004°46'0 0.0
2014-Apr-13 14:33N 52°25' E 004°46'0 0.0
2014-Apr-13 13:33N 52°25' E 004°46'0 0.0
2014-Apr-13 12:33N 52°25' E 004°46'0 0.0
2014-Apr-13 11:33N 52°25' E 004°46'70257027.4
2014-Apr-13 10:33S 64°40' E 004°46'70257025.5
2014-Apr-13 09:33N 52°25' E 004°46'0 0.0
2014-Apr-13 08:33N 52°25' E 004°46'0 0.0
2014-Apr-13 07:30N 52°25' E 004°46'0 0.0
2014-Apr-13 06:33N 52°25' E 004°46'0 0.0
2014-Apr-13 05:33N 52°25' E 004°46'0 0.0
2014-Apr-13 04:33N 52°25' E 004°46'0 0.0
2014-Apr-13 03:33N 52°25' E 004°46'0 0.0
2014-Apr-13 02:33N 52°25' E 004°46'0 0.0
2014-Apr-13 01:33N 52°25' E 004°46'0 0.0
2014-Apr-13 00:33N 52°25' E 004°46'0 0.0
2014-Apr-12 23:33N 52°25' E 004°46'0 0.0
2014-Apr-12 22:33N 52°25' E 004°46'0 0.0
2014-Apr-12 21:33N 52°25' E 004°46'0 0.0
2014-Apr-12 20:33N 52°25' E 004°46'1 0.8
2014-Apr-12 19:34N 52°26' E 004°46'6 6.1
2014-Apr-12 18:33N 52°28' E 004°37'6 5.6
2014-Apr-12 17:34N 52°28' E 004°27'1211.8
2014-Apr-12 16:33N 52°28' E 004°08'4 3.5
2014-Apr-12 15:29N 52°27' E 004°02'0 0.0
2014-Apr-12 14:29N 52°27' E 004°02'0 0.0
2014-Apr-12 13:32N 52°27' E 004°02'0 0.0
2014-Apr-12 12:32N 52°27' E 004°02'0 0.0
2014-Apr-12 11:29N 52°27' E 004°02'0 0.1
2014-Apr-12 10:32N 52°27' E 004°02'0 0.1
2014-Apr-12 09:32N 52°27' E 004°02'0 0.0
2014-Apr-12 08:29N 52°27' E 004°02'0 0.0
2014-Apr-12 07:29N 52°27' E 004°02'1 1.4
2014-Apr-12 06:33N 52°27' E 004°00'1111.1
2014-Apr-12 05:33N 52°22' E 003°44'1312.7
2014-Apr-12 04:32N 52°15' E 003°26'1513.1
2014-Apr-12 03:23N 52°07' E 003°06'1213.7
2014-Apr-12 02:32N 51°58' E 002°54'1414.1
2014-Apr-12 01:33N 51°47' E 002°39'1414.4
2014-Apr-12 00:33N 51°36' E 002°24'1414.4
2014-Apr-11 23:33N 51°24' E 002°12'1514.0
2014-Apr-11 22:31N 51°12' E 001°58'1514.9
2014-Apr-11 21:32N 51°03' E 001°40'1414.8
2014-Apr-11 20:33N 50°51' E 001°27'1413.8
2014-Apr-11 19:34N 50°39' E 001°16'1913.1
2014-Apr-11 18:06N 50°28' E 000°52'713.9
2014-Apr-11 17:33N 50°26' E 000°40'1414.0
2014-Apr-11 16:33N 50°22' E 000°19'4912.2
2014-Apr-11 12:33N 50°33' W 000°56'8 7.6
2014-Apr-11 11:32N 50°38' W 001°05'0 0.0
2014-Apr-11 10:32N 50°38' W 001°05'0 0.0
2014-Apr-11 09:32N 50°38' W 001°05'0 0.0
2014-Apr-11 08:32N 50°38' W 001°05'0 0.1
2014-Apr-11 07:32N 50°38' W 001°05'0 0.0
2014-Apr-11 06:32N 50°38' W 001°05'0 0.0
2014-Apr-11 05:32N 50°38' W 001°05'0 0.0
2014-Apr-11 04:32N 50°38' W 001°05'0 0.0
2014-Apr-11 03:32N 50°38' W 001°05'0 0.0
2014-Apr-11 02:32N 50°38' W 001°05'0 0.1
2014-Apr-11 01:29N 50°38' W 001°05'0 0.0
2014-Apr-11 00:32N 50°38' W 001°05'0 0.1
2014-Apr-10 23:32N 50°38' W 001°05'6 6.2
2014-Apr-10 22:34N 50°44' W 001°02'1111.1
2014-Apr-10 21:34N 50°47' W 001°19'3 3.0
2014-Apr-10 20:32N 50°50' W 001°20'0 0.0
2014-Apr-10 19:32N 50°50' W 001°20'0 0.0
2014-Apr-10 18:32N 50°50' W 001°20'0 0.0
2014-Apr-10 17:32N 50°50' W 001°20'0 0.0
2014-Apr-10 16:32N 50°50' W 001°20'0 0.0
2014-Apr-10 15:32N 50°50' W 001°20'0 0.0
2014-Apr-10 14:32N 50°50' W 001°20'0 0.0
2014-Apr-10 13:32N 50°50' W 001°20'0 0.0
2014-Apr-10 12:32N 50°50' W 001°20'0 0.0
2014-Apr-10 11:32N 50°50' W 001°20'0 0.0
2014-Apr-10 10:32N 50°50' W 001°20'0 0.0
2014-Apr-10 09:32N 50°50' W 001°20'0 0.0
2014-Apr-10 08:32N 50°50' W 001°20'0 0.0
2014-Apr-10 07:32N 50°50' W 001°20'0 0.0
2014-Apr-10 06:32N 50°50' W 001°20'0 0.0
2014-Apr-10 05:32N 50°50' W 001°20'0 0.0
2014-Apr-10 04:32N 50°50' W 001°20'0 0.0
2014-Apr-10 03:32N 50°50' W 001°20'0 0.0
2014-Apr-10 02:32N 50°50' W 001°20'0 0.0
2014-Apr-10 01:32N 50°50' W 001°20'0 0.0
2014-Apr-10 00:32N 50°50' W 001°20'0 0.0
2014-Apr-09 23:32N 50°50' W 001°20'  

Dump ship's entire track history

sailing weather and tide predictions

Autumn — V7QA6 — position and weather